• Join FlightAware (Why Join?)
  • Login
  • US Flag 
04:37AM EDT


 

Airport Tracker/Info


-or-


 

Live Flight TrackerFlight Track Log ✈ EJM90 ✈ 23-Jan-2014 ✈ KRDU - KORL

Flight Track Log - Related Links

Times and Time Zones

All times are in EST time to prevent confusion due to time zone crossing. See the EJM90 flight status page for this flight to view local times or setup timezone preferences in your user account.

Time Position Orientation Groundspeed Altitude Reporting Facility
EST Latitude Longitude Course Direction KTS MPH feet Rate Location/Type
10:05PM 35.8903 -78.7814 170° South 155 178 1,400  Level Washington Center
10:08PM 35.7942 -78.7849 171° South  Level Estimated
10:09PM 35.7015 -78.8203 180° South  Level Estimated
10:10PM 35.6089 -78.8557 172° South  Level Estimated
10:10PM 35.8335 -78.6275 170° South 293 337 11,600  Level FlightAware ADS-B
10:11PM 35.5162 -78.8910 170° South  Level Estimated
10:11PM 35.7490 -78.6484 191° South 294 338 14,000  Level FlightAware ADS-B
10:12PM 35.6812 -78.6653 191° South 306 352 17,000 4,440 Climbing FlightAware ADS-B
10:13PM 35.6257 -78.6875 198° South 292 336 20,000 3,960 Climbing FlightAware ADS-B
10:13PM 35.5784 -78.7114 202° Southwest 307 353 22,300 3,360 Climbing FlightAware ADS-B
10:14PM 35.5247 -78.7390 203° Southwest 310 357 24,500 3,060 Climbing FlightAware ADS-B
10:15PM 35.4665 -78.7686 203° Southwest 323 372 26,500 2,700 Climbing FlightAware ADS-B
10:15PM 35.4102 -78.7973 203° Southwest 337 388 28,200 2,460 Climbing FlightAware ADS-B
10:16PM 35.3537 -78.8260 203° Southwest 343 395 29,800 2,640 Climbing FlightAware ADS-B
10:17PM 35.2960 -78.8554 203° Southwest 337 388 31,800 2,220 Climbing FlightAware ADS-B
10:17PM 35.2340 -78.8869 203° Southwest 352 405 32,800 1,560 Climbing FlightAware ADS-B
10:18PM 35.1738 -78.9174 202° Southwest 360 414 33,900 1,380 Climbing FlightAware ADS-B
10:19PM 35.1281 -78.9406 203° Southwest 373 429 34,600 1,380 Climbing FlightAware ADS-B
10:19PM 35.0587 -78.9756 202° Southwest 377 434 35,700 1,560 Climbing FlightAware ADS-B
10:21PM 34.9250 -79.0442 202° Southwest 368 423 38,000 900 Climbing Jacksonville Center
10:22PM 34.8367 -79.0861 201° Southwest 358 412 38,000  Level Jacksonville Center
10:23PM 34.7483 -79.1306 202° Southwest 353 406 38,000  Level Jacksonville Center
10:24PM 34.6578 -79.1772 203° Southwest 353 406 38,000  Level Jacksonville Center
10:25PM 34.5675 -79.2214 202° Southwest 353 406 38,000  Level Jacksonville Center
10:26PM 34.4689 -79.2761 205° Southwest 347 399 38,000  Level Jacksonville Center
10:27PM 34.3764 -79.3228 203° Southwest 357 411 38,000  Level Jacksonville Center
10:28PM 34.2858 -79.3667 202° Southwest 357 411 38,000  Level Jacksonville Center
10:29PM 34.1931 -79.4106 201° Southwest 357 411 38,000  Level Jacksonville Center
10:30PM 34.1044 -79.4492 200° South 352 405 38,000  Level Jacksonville Center
10:31PM 34.0139 -79.4953 203° Southwest 352 405 38,000  Level Jacksonville Center
10:32PM 33.9214 -79.5414 202° Southwest 352 405 38,000  Level Jacksonville Center
10:33PM 33.8286 -79.5850 201° Southwest 352 405 38,000 -60 Level Jacksonville Center
10:34PM 33.7358 -79.6311 202° Southwest 358 412 37,900  Descending Jacksonville Center
10:35PM 33.6431 -79.6769 202° Southwest 358 412 38,000  Climbing Jacksonville Center
10:36PM 33.5503 -79.7225 202° Southwest 358 412 38,000  Level Jacksonville Center
10:37PM 33.4556 -79.7683 202° Southwest 358 412 38,000  Level Jacksonville Center
10:38PM 33.3628 -79.8114 201° Southwest 363 418 38,000  Level Jacksonville Center
10:39PM 33.2678 -79.8592 203° Southwest 368 423 38,000  Level Jacksonville Center
10:40PM 33.1728 -79.9047 202° Southwest 368 423 38,000  Level Jacksonville Center
10:41PM 33.0736 -79.9428 198° South 368 423 38,000  Level Jacksonville Center
10:42PM 32.9700 -79.9733 194° South 381 438 38,000  Level Jacksonville Center
10:43PM 32.8664 -80.0089 196° South 387 445 38,000  Level Jacksonville Center
10:44PM 32.7608 -80.0444 196° South 387 445 38,000  Level Jacksonville Center
10:45PM 32.6531 -80.0772 194° South 393 452 38,000  Level Jacksonville Center
10:46PM 32.5494 -80.1125 196° South 393 452 38,000  Level Jacksonville Center
10:47PM 32.4436 -80.1453 195° South 393 452 38,000  Level Jacksonville Center
10:48PM 32.3378 -80.1806 196° South 393 452 38,000  Level Jacksonville Center
10:49PM 32.2322 -80.2156 196° South 393 452 38,000  Level Jacksonville Center
10:50PM 32.1264 -80.2481 195° South 398 458 38,000  Level Jacksonville Center
10:51PM 32.0206 -80.2831 196° South 392 451 38,000  Level Jacksonville Center
10:52PM 31.9128 -80.3156 194° South 400 460 38,000  Level Jacksonville Center
10:53PM 31.8028 -80.3503 195° South 400 460 38,000  Level Jacksonville Center
10:54PM 31.6969 -80.3850 196° South 400 460 38,000  Level Jacksonville Center
10:55PM 31.5892 -80.4194 195° South 400 460 38,000 -480 Level Jacksonville Center
10:56PM 31.4792 -80.4542 195° South 405 466 37,100 -1,140 Descending Jacksonville Center
10:57PM 31.3669 -80.4814 192° South 405 466 35,800 -1,440 Descending Jacksonville Center
10:58PM 31.2611 -80.5206 198° South 405 466 34,300 -1,500 Descending Jacksonville Center
10:59PM 31.1469 -80.5525 193° South 417 480 32,900 -1,500 Descending Jacksonville Center
11:00PM 31.0392 -80.5892 196° South 417 480 31,400 -1,500 Descending Jacksonville Center
11:01PM 30.9292 -80.6258 196° South 411 473 30,000 -1,500 Descending Jacksonville Center
11:02PM 30.8147 -80.6575 193° South 417 480 28,500 -1,500 Descending Jacksonville Center
11:03PM 30.7028 -80.6917 195° South 417 480 27,000 -1,500 Descending Jacksonville Center
11:04PM 30.5864 -80.7281 195° South 416 479 25,500 -1,500 Descending Jacksonville Center
11:05PM 30.4700 -80.7619 194° South 427 491 24,000 -420 Descending Jacksonville Center
11:11PM 29.8418 -80.9869 194° South 390 449 22,900 -360 Descending FlightAware ADS-B (KMCO)
11:11PM 29.7662 -81.0356 209° Southwest 393 452 22,000 -780 Descending FlightAware ADS-B (KMCO)
11:12PM 29.7063 -81.0734 209° Southwest 380 437 21,800 -1,020 Descending FlightAware ADS-B (KMCO)
11:13PM 29.6382 -81.1169 209° Southwest 376 433 20,600 -1,740 Descending FlightAware ADS-B (KMCO)
11:13PM 29.5754 -81.1611 211° Southwest 373 429 19,300 -2,280 Descending FlightAware ADS-B (KMCO)
11:14PM 29.5213 -81.2000 212° Southwest 364 419 17,600 -2,520 Descending FlightAware ADS-B (KMCO)
11:15PM 29.4590 -81.2450 212° Southwest 345 397 15,900 -2,520 Descending FlightAware ADS-B (KMCO)
11:15PM 29.4369 -81.2561 204° Southwest 350 403 15,300 -2,880 Descending FlightAware ADS-B (KMCO)
11:15PM 29.4018 -81.2630 190° South 370 426 14,200 -2,640 Descending FlightAware ADS-B (KMCO)
11:16PM 29.3305 -81.2481 170° South 359 413 12,500 -2,040 Descending FlightAware ADS-B (KMCO)
11:17PM 29.2685 -81.2294 165° South 333 383 11,400 -1,560 Descending FlightAware ADS-B (KMCO)
11:17PM 29.2083 -81.2143 168° South 311 358 10,400 -1,380 Descending FlightAware ADS-B (KMCO)
11:18PM 29.1818 -81.2247 199° South 287 330 10,000 -1,260 Descending FlightAware ADS-B (KMCO)
11:18PM 29.1602 -81.2385 209° Southwest 271 312 9,600 -1,200 Descending FlightAware ADS-B (KMCO)
11:18PM 29.1389 -81.2522 209° Southwest 260 299 9,200 -1,560 Descending FlightAware ADS-B (KMCO)
11:19PM 29.1221 -81.2633 210° Southwest 259 298 8,600 -1,980 Descending FlightAware ADS-B (KMCO)
11:19PM 29.0966 -81.2808 211° Southwest 262 302 7,900 -2,040 Descending FlightAware ADS-B (KMCO)
11:19PM 29.0744 -81.2929 205° Southwest 265 305 7,200 -2,340 Descending FlightAware ADS-B (KMCO)
11:20PM 29.0531 -81.3039 204° Southwest 267 307 6,400 -2,400 Descending FlightAware ADS-B (KMCO)
11:20PM 29.0065 -81.3284 205° Southwest 271 312 4,800 -1,800 Descending FlightAware ADS-B (KMCO)
11:21PM 28.9856 -81.3394 205° Southwest 266 306 4,600 -300 Descending FlightAware ADS-B (KMCO)
11:21PM 28.9615 -81.3516 204° Southwest 268 308 4,600  Level FlightAware ADS-B (KMCO)
11:21PM 28.9371 -81.3585 194° South 268 308 4,600  Level FlightAware ADS-B (KMCO)
11:22PM 28.9145 -81.3641 192° South 261 300 4,600  Level FlightAware ADS-B (KMCO)
11:22PM 28.8964 -81.3669 188° South 261 300 4,600  Level FlightAware ADS-B (KMCO)
11:22PM 28.8661 -81.3719 188° South 260 299 4,600  Level FlightAware ADS-B (KMCO)
11:23PM 28.8397 -81.3763 188° South 262 302 4,600 -180 Level FlightAware ADS-B (KMCO)
11:23PM 28.8164 -81.3804 189° South 260 299 4,500 -180 Descending FlightAware ADS-B (KMCO)
11:23PM 28.7926 -81.3848 189° South 258 297 4,500 -600 Level FlightAware ADS-B (KMCO)
11:24PM 28.7693 -81.3889 189° South 251 289 4,100 -1,260 Descending FlightAware ADS-B (KMCO)
11:24PM 28.7471 -81.3929 189° South 251 289 3,700 -1,080 Descending FlightAware ADS-B (KMCO)
11:24PM 28.7238 -81.3969 189° South 265 305 3,400 -1,080 Descending FlightAware ADS-B (KMCO)
11:25PM 28.6982 -81.4014 189° South 269 310 3,000 -1,320 Descending FlightAware ADS-B (KMCO)
11:25PM 28.6738 -81.4056 189° South 259 298 2,500 -1,380 Descending FlightAware ADS-B (KMCO)
11:25PM 28.6512 -81.4095 189° South 239 275 2,100 -1,080 Descending FlightAware ADS-B (KMCO)
11:26PM 28.6289 -81.4133 189° South 222 255 1,800 -780 Descending FlightAware ADS-B (KMCO)
11:26PM 28.6093 -81.4167 189° South 210 242 1,600 -300 Descending FlightAware ADS-B (KMCO)
11:26PM 28.5908 -81.4196 188° South 202 232 1,600  Level FlightAware ADS-B (KMCO)
11:27PM 28.5724 -81.4223 187° South 206 237 1,600  Level FlightAware ADS-B (KMCO)
11:27PM 28.5523 -81.4252 187° South 209 241 1,600 -180 Level FlightAware ADS-B (KMCO)
11:28PM 28.5321 -81.4281 187° South 210 242 1,500 120 Descending FlightAware ADS-B (KMCO)
11:28PM 28.5137 -81.4320 190° South 208 239 1,700 120 Climbing FlightAware ADS-B (KMCO)
11:28PM 28.4995 -81.4450 219° Southwest 203 234 1,600 -180 Descending FlightAware ADS-B (KMCO)
11:29PM 28.4949 -81.4654 256° West 199 229 1,600 -180 Level FlightAware ADS-B (KMCO)
11:29PM 28.4919 -81.4884 262° West 199 229 1,500 -180 Descending FlightAware ADS-B (KMCO)
11:29PM 28.4894 -81.5078 262° West 198 228 1,500  Level FlightAware ADS-B (KMCO)
11:30PM 28.4920 -81.5292 278° West 193 222 1,500  Level FlightAware ADS-B (KMCO)
11:30PM 28.5022 -81.5464 304° West 190 219 1,500  Level FlightAware ADS-B (KMCO)
11:30PM 28.5175 -81.5513 344° North 186 214 1,500  Level FlightAware ADS-B (KMCO)
11:31PM 28.5274 -81.5392 47° Northeast 177 204 1,500  Level FlightAware ADS-B (KMCO)
11:31PM 28.5253 -81.5223 98° East 162 186 1,500 120 Level FlightAware ADS-B (KMCO)
11:31PM 28.5208 -81.5055 107° East 157 181 1,600  Climbing FlightAware ADS-B (KMCO)
11:32PM 28.5167 -81.4889 106° East 156 180 1,500 -180 Descending FlightAware ADS-B (KMCO)
11:32PM 28.5130 -81.4723 104° East 156 180 1,500  Level FlightAware ADS-B (KMCO)
11:32PM 28.5096 -81.4572 105° East 156 180 1,500 -180 Level FlightAware ADS-B (KMCO)
11:33PM 28.5065 -81.4400 102° East 152 175 1,400 -480 Descending FlightAware ADS-B (KMCO)
11:33PM 28.5081 -81.4251 83° East 146 168 1,200 -480 Descending FlightAware ADS-B (KMCO)
11:33PM 28.5116 -81.4107 75° East 143 165 1,100 -480 Descending FlightAware ADS-B (KMCO)
11:34PM 28.5187 -81.3992 55° Northeast 137 158 900 -600 Descending FlightAware ADS-B (KMCO)
11:34PM 28.5254 -81.3865 59° Northeast 112 129 700 -600 Descending FlightAware ADS-B (KMCO)
11:34PM 28.5289 -81.3763 68° East 109 125 500 -600 Descending FlightAware ADS-B (KMCO)
11:35PM 28.5328 -81.3659 67° East 105 121 300 -600 Descending FlightAware ADS-B (KMCO)
11:35PM 28.5369 -81.3551 66° East 110 127 100 9,600 Descending FlightAware ADS-B (KMCO)
11:36PM 28.5431 -81.3281 66° East 122 140 12,000 6,300 Climbing Jacksonville Center
11:37PM 28.5531 -81.2925 72° East 122 140 12,000  Level Jacksonville Center
11:39PM 28.5455 -81.3329 258° West  Level Estimated
11:46PM 28.5455 -81.3329 53° Northeast  Level Estimated
11:47PM 28.5455 -81.3329 53° Northeast  Level Estimated
11:48PM 28.5455 -81.3329 53° Northeast  Level Estimated